createdAt,value
2023-05-05T00:02:10.364Z,78.26
2023-05-05T00:04:41.829Z,78.21
2023-05-05T00:07:13.546Z,78.80
2023-05-05T00:09:45.000Z,78.80
2023-05-05T00:12:16.462Z,78.73
2023-05-05T00:14:47.918Z,78.76
2023-05-05T00:17:19.763Z,79.46
2023-05-05T00:19:51.623Z,79.44
2023-05-05T00:22:23.071Z,79.78
2023-05-05T00:24:54.997Z,79.97
2023-05-05T00:27:26.461Z,80.42
2023-05-05T00:29:58.216Z,80.50
2023-05-05T00:32:29.705Z,80.29
2023-05-05T00:35:01.535Z,80.30
2023-05-05T00:37:32.996Z,81.30
2023-05-05T00:40:04.734Z,81.57
2023-05-05T00:42:36.246Z,81.72
2023-05-05T00:45:07.986Z,81.40
2023-05-05T00:47:39.539Z,81.26
2023-05-05T00:50:11.010Z,82.82
2023-05-05T00:52:42.666Z,82.38
2023-05-05T00:55:14.109Z,82.79
2023-05-05T00:57:45.575Z,82.65
2023-05-05T01:00:17.047Z,82.45
2023-05-05T01:02:48.923Z,83.06
2023-05-05T01:05:20.433Z,83.33
2023-05-05T01:07:52.213Z,82.85
2023-05-05T01:10:23.917Z,83.93
2023-05-05T01:12:55.734Z,83.98
2023-05-05T01:15:27.572Z,83.31
2023-05-05T01:17:59.308Z,83.54
2023-05-05T01:20:31.083Z,84.01
2023-05-05T01:23:02.526Z,83.87
2023-05-05T01:25:34.002Z,83.86
2023-05-05T01:28:05.489Z,84.18
2023-05-05T01:30:36.962Z,84.79
2023-05-05T01:33:08.445Z,84.83
2023-05-05T01:35:39.984Z,84.59
2023-05-05T01:38:11.438Z,84.65
2023-05-05T01:40:43.234Z,84.72
2023-05-05T01:43:14.932Z,84.95
2023-05-05T01:45:46.755Z,85.65
2023-05-05T01:48:18.706Z,84.78
2023-05-05T01:50:50.153Z,85.20
2023-05-05T01:53:21.917Z,85.69
2023-05-05T01:55:53.364Z,85.58
2023-05-05T01:58:24.838Z,85.71
2023-05-05T02:00:56.347Z,86.26
2023-05-05T02:03:27.888Z,85.92
2023-05-05T02:05:59.365Z,85.75
2023-05-05T02:08:31.079Z,86.15
2023-05-05T02:11:02.532Z,86.64
2023-05-05T02:13:34.136Z,86.92
2023-05-05T02:16:06.134Z,87.28
2023-05-05T02:18:37.635Z,86.39
2023-05-05T02:21:09.391Z,87.23
2023-05-05T02:23:40.853Z,87.05
2023-05-05T02:26:12.310Z,86.76
2023-05-05T02:28:43.760Z,87.63
2023-05-05T02:31:15.544Z,87.32
2023-05-05T02:33:47.044Z,87.67
2023-05-05T02:36:18.838Z,87.43
2023-05-05T02:38:50.300Z,87.97
2023-05-05T02:41:22.115Z,88.30
2023-05-05T02:43:53.879Z,88.75
2023-05-05T02:46:25.709Z,88.69
2023-05-05T02:48:57.539Z,88.59
2023-05-05T02:51:28.971Z,89.04
2023-05-05T02:54:00.733Z,88.80
2023-05-05T02:56:32.193Z,88.58
2023-05-05T02:59:04.007Z,88.68
2023-05-05T03:01:35.505Z,89.13
2023-05-05T03:04:07.268Z,89.08
2023-05-05T03:06:38.781Z,89.23
2023-05-05T03:09:10.595Z,88.61
2023-05-05T03:11:42.050Z,87.91
2023-05-05T03:14:13.750Z,88.62
2023-05-05T03:16:45.944Z,89.00
2023-05-05T03:19:18.668Z,89.10
2023-05-05T03:21:50.389Z,89.37
2023-05-05T03:24:21.826Z,89.37
2023-05-05T03:26:53.566Z,88.82
2023-05-05T03:29:25.005Z,89.63
2023-05-05T03:31:56.905Z,89.17
2023-05-05T03:34:28.393Z,88.70
2023-05-05T03:37:00.077Z,88.28
2023-05-05T03:39:31.534Z,88.64
2023-05-05T03:42:03.444Z,89.08
2023-05-05T03:44:34.894Z,89.21
2023-05-05T03:47:06.728Z,89.19
2023-05-05T03:49:39.284Z,89.16
2023-05-05T03:52:11.152Z,88.99
2023-05-05T03:54:43.613Z,89.14
2023-05-05T03:57:15.070Z,89.44
2023-05-05T03:59:46.866Z,89.70
2023-05-05T04:02:18.981Z,89.72
2023-05-05T04:04:50.510Z,89.71
2023-05-05T04:07:22.288Z,89.52
2023-05-05T04:09:53.742Z,89.64
2023-05-05T04:12:25.209Z,89.78
2023-05-05T04:14:57.030Z,89.46
2023-05-05T04:17:28.862Z,89.04
2023-05-05T04:20:00.713Z,89.16
2023-05-05T04:22:32.728Z,88.63
2023-05-05T04:25:04.224Z,87.80
2023-05-05T04:27:35.704Z,87.39
2023-05-05T04:30:07.347Z,87.21
2023-05-05T04:32:39.027Z,85.72
2023-05-05T04:35:10.517Z,85.74
2023-05-05T04:37:42.319Z,85.05
2023-05-05T04:40:13.782Z,85.13
2023-05-05T04:42:45.599Z,84.78
2023-05-05T04:45:17.089Z,83.13
2023-05-05T04:47:48.948Z,83.52
2023-05-05T04:50:20.580Z,82.33
2023-05-05T04:52:52.745Z,82.33
2023-05-05T04:55:24.720Z,80.70
2023-05-05T04:57:56.274Z,80.94
2023-05-05T05:00:27.794Z,81.25
2023-05-05T05:02:59.283Z,81.24
2023-05-05T05:05:30.801Z,80.23
2023-05-05T05:08:02.410Z,79.57
2023-05-05T05:10:33.980Z,78.69
2023-05-05T05:13:05.548Z,77.22
2023-05-05T05:15:37.080Z,76.98
2023-05-05T05:18:08.554Z,76.14
2023-05-05T05:20:40.063Z,74.80
2023-05-05T05:23:11.875Z,74.17
2023-05-05T05:25:43.342Z,72.73
2023-05-05T05:28:15.096Z,71.79
2023-05-05T05:30:46.546Z,70.50
2023-05-05T05:33:18.332Z,70.19
2023-05-05T05:35:49.839Z,69.54
2023-05-05T05:38:21.573Z,69.04
2023-05-05T05:40:53.160Z,69.55
2023-05-05T05:43:24.977Z,68.86
2023-05-05T05:45:56.465Z,68.63
2023-05-05T05:48:28.379Z,67.41
2023-05-05T05:51:00.204Z,66.95
2023-05-05T05:53:31.966Z,66.02
2023-05-05T05:56:03.800Z,65.20
2023-05-05T05:58:35.256Z,64.12
2023-05-05T06:01:07.019Z,63.27
2023-05-05T06:03:38.674Z,61.22
2023-05-05T06:06:10.535Z,60.75
2023-05-05T06:08:41.990Z,61.08
2023-05-05T06:11:13.782Z,61.16
2023-05-05T06:13:45.241Z,59.91
2023-05-05T06:16:17.084Z,60.07
2023-05-05T06:18:48.613Z,58.94
2023-05-05T06:21:20.461Z,58.19
2023-05-05T06:23:51.945Z,55.86
2023-05-05T06:26:23.766Z,55.50
2023-05-05T06:28:55.231Z,54.27
2023-05-05T06:31:26.713Z,54.47
2023-05-05T06:33:58.632Z,54.25
2023-05-05T06:36:30.176Z,54.76
2023-05-05T06:39:02.049Z,55.28
2023-05-05T06:41:33.513Z,54.88
2023-05-05T06:44:06.407Z,53.94
2023-05-05T06:46:37.898Z,53.46
2023-05-05T06:49:09.600Z,54.06
2023-05-05T06:51:42.721Z,53.49
2023-05-05T06:54:14.605Z,53.06
2023-05-05T06:56:46.464Z,53.63
2023-05-05T06:59:17.964Z,53.49
2023-05-05T07:01:49.719Z,53.19
2023-05-05T07:04:21.184Z,52.93
2023-05-05T07:06:53.121Z,52.17
2023-05-05T07:09:24.570Z,51.11
2023-05-05T07:11:56.352Z,50.60
2023-05-05T07:14:27.900Z,50.28
2023-05-05T07:16:59.763Z,49.91
2023-05-05T07:19:31.209Z,48.88
2023-05-05T07:22:03.075Z,48.23
2023-05-05T07:24:34.577Z,48.58
2023-05-05T07:27:06.509Z,47.95
2023-05-05T07:29:37.983Z,47.02
2023-05-05T07:32:09.734Z,46.93
2023-05-05T07:34:41.557Z,46.94
2023-05-05T07:37:13.037Z,46.26
2023-05-05T07:39:44.801Z,47.74
2023-05-05T07:42:16.263Z,46.67
2023-05-05T07:44:48.177Z,45.79
2023-05-05T07:47:19.662Z,44.38
2023-05-05T07:49:51.517Z,44.50
2023-05-05T07:52:33.067Z,45.54
2023-05-05T07:55:09.439Z,44.54
2023-05-05T07:57:40.890Z,43.72
2023-05-05T08:00:12.816Z,45.13
2023-05-05T08:02:44.382Z,44.31
2023-05-05T08:05:16.425Z,43.01
2023-05-05T08:07:47.919Z,43.56
2023-05-05T08:10:19.673Z,42.61
2023-05-05T08:12:51.582Z,42.83
2023-05-05T08:15:23.056Z,42.58
2023-05-05T08:17:54.566Z,43.20
2023-05-05T08:20:26.031Z,43.14
2023-05-05T08:22:58.013Z,41.95
2023-05-05T08:25:29.465Z,41.93
2023-05-05T08:28:01.425Z,42.33
2023-05-05T08:30:32.908Z,41.87
2023-05-05T08:33:04.776Z,41.15
2023-05-05T08:35:36.290Z,42.07
2023-05-05T08:38:08.226Z,41.25
2023-05-05T08:40:40.292Z,40.88
2023-05-05T08:43:12.173Z,39.83
2023-05-05T08:45:43.997Z,41.38
2023-05-05T08:48:15.454Z,41.10
2023-05-05T08:50:47.429Z,40.52
2023-05-05T08:53:18.909Z,40.83
2023-05-05T08:55:50.739Z,39.74
2023-05-05T08:58:22.206Z,40.00
2023-05-05T09:00:53.840Z,39.14
2023-05-05T09:03:25.377Z,39.21
2023-05-05T09:05:57.196Z,39.05
2023-05-05T09:08:28.631Z,38.95
2023-05-05T09:11:00.093Z,38.32
2023-05-05T09:13:31.576Z,37.99
2023-05-05T09:16:03.050Z,37.84
2023-05-05T09:18:34.508Z,37.56
2023-05-05T09:21:06.473Z,37.12
2023-05-05T09:23:38.267Z,37.42
2023-05-05T09:26:09.733Z,37.37
2023-05-05T09:28:41.530Z,36.54
2023-05-05T09:31:13.079Z,36.53
2023-05-05T09:33:44.793Z,37.58
2023-05-05T09:36:16.251Z,36.08
2023-05-05T09:38:47.771Z,36.21
2023-05-05T09:41:19.222Z,35.96
2023-05-05T09:43:51.070Z,36.69
2023-05-05T09:46:22.570Z,35.88
2023-05-05T09:48:54.072Z,35.33
2023-05-05T09:51:25.521Z,35.77
2023-05-05T09:53:57.263Z,35.31
2023-05-05T09:56:29.052Z,34.82
2023-05-05T09:59:00.501Z,34.49
2023-05-05T10:01:32.386Z,34.74
2023-05-05T10:04:03.878Z,34.72
2023-05-05T10:06:35.883Z,34.32
2023-05-05T10:09:07.359Z,34.23
2023-05-05T10:11:39.187Z,33.97
2023-05-05T10:14:10.658Z,34.15
2023-05-05T10:16:42.495Z,35.00
2023-05-05T10:19:14.089Z,34.65
2023-05-05T10:21:46.041Z,33.06
2023-05-05T10:24:17.607Z,33.21
2023-05-05T10:26:49.501Z,33.02
2023-05-05T10:29:21.459Z,32.09
2023-05-05T10:31:53.019Z,32.07
2023-05-05T10:34:24.717Z,30.99
2023-05-05T10:36:56.185Z,32.03
2023-05-05T10:39:27.957Z,31.86
2023-05-05T10:41:59.423Z,32.36
2023-05-05T10:44:31.245Z,31.76
2023-05-05T10:47:02.729Z,31.76
2023-05-05T10:49:34.568Z,31.18
2023-05-05T10:52:06.027Z,31.40
2023-05-05T10:54:38.256Z,31.44
2023-05-05T10:57:10.044Z,31.69
2023-05-05T10:59:41.947Z,31.09
2023-05-05T11:02:13.780Z,31.35
2023-05-05T11:04:45.272Z,31.06
2023-05-05T11:07:17.074Z,30.64
2023-05-05T11:09:48.559Z,30.87
2023-05-05T11:12:20.006Z,30.04
2023-05-05T11:14:51.522Z,31.33
2023-05-05T11:17:23.427Z,31.48
2023-05-05T11:19:54.916Z,30.12
2023-05-05T11:22:26.636Z,30.20
2023-05-05T11:24:58.108Z,32.08
2023-05-05T11:27:29.982Z,31.92
2023-05-05T11:30:01.429Z,31.98
2023-05-05T11:32:33.423Z,33.11
2023-05-05T11:35:04.923Z,32.07
2023-05-05T11:37:36.403Z,32.37
2023-05-05T11:40:08.449Z,32.57
2023-05-05T11:42:40.117Z,31.81
2023-05-05T11:45:11.935Z,31.92
2023-05-05T11:47:43.492Z,32.70
2023-05-05T11:50:15.290Z,31.79
2023-05-05T11:52:46.734Z,31.50
2023-05-05T11:55:18.589Z,31.84
2023-05-05T11:57:50.046Z,32.10
2023-05-05T12:00:21.808Z,32.76
2023-05-05T12:02:53.478Z,32.55
2023-05-05T12:05:25.249Z,32.71
2023-05-05T12:07:56.759Z,32.06
2023-05-05T12:10:28.548Z,31.03
2023-05-05T12:13:00.050Z,31.07
2023-05-05T12:15:31.908Z,31.57
2023-05-05T12:18:03.626Z,31.69
2023-05-05T12:20:35.288Z,31.45
2023-05-05T12:23:06.787Z,31.37
2023-05-05T12:25:38.429Z,32.11
2023-05-05T12:28:09.978Z,31.96
2023-05-05T12:30:41.461Z,31.76
2023-05-05T12:33:12.963Z,31.34
2023-05-05T12:35:44.437Z,31.28
2023-05-05T12:38:16.265Z,31.54
2023-05-05T12:40:47.812Z,31.71
2023-05-05T12:43:19.713Z,31.74
2023-05-05T12:45:51.175Z,31.81
2023-05-05T12:48:22.992Z,31.62
2023-05-05T12:50:54.469Z,31.43
2023-05-05T12:53:26.241Z,31.92
2023-05-05T12:55:58.088Z,32.10
2023-05-05T12:58:29.867Z,31.97
2023-05-05T13:01:01.713Z,32.23
2023-05-05T13:03:33.278Z,31.70
2023-05-05T13:06:05.151Z,31.16
2023-05-05T13:08:36.611Z,30.76
2023-05-05T13:11:08.372Z,31.55
2023-05-05T13:13:39.961Z,30.64
2023-05-05T13:16:11.511Z,30.10
2023-05-05T13:18:42.944Z,30.09
2023-05-05T13:21:14.447Z,30.11
2023-05-05T13:23:45.928Z,29.44
2023-05-05T13:26:17.603Z,30.60
2023-05-05T13:28:49.127Z,30.30
2023-05-05T13:31:20.643Z,30.17
2023-05-05T13:33:52.724Z,30.83
2023-05-05T13:36:24.293Z,31.51
2023-05-05T13:38:55.760Z,31.26
2023-05-05T13:41:27.281Z,30.37
2023-05-05T13:43:58.975Z,31.09
2023-05-05T13:46:30.466Z,30.96
2023-05-05T13:49:02.079Z,29.58
2023-05-05T13:51:33.561Z,29.73
2023-05-05T13:54:05.032Z,30.24
2023-05-05T13:56:36.525Z,30.61
2023-05-05T13:59:07.990Z,30.41
2023-05-05T14:01:39.495Z,30.55
2023-05-05T14:04:11.248Z,29.99
2023-05-05T14:06:43.287Z,30.95
2023-05-05T14:09:14.820Z,31.23
2023-05-05T14:11:46.634Z,31.09
2023-05-05T14:14:18.087Z,30.13
2023-05-05T14:16:50.332Z,31.55
2023-05-05T14:19:22.251Z,31.62
2023-05-05T14:21:54.204Z,31.27
2023-05-05T14:24:25.712Z,31.56
2023-05-05T14:26:57.591Z,31.71
2023-05-05T14:29:29.066Z,33.01
2023-05-05T14:32:00.900Z,33.19
2023-05-05T14:34:32.838Z,33.23
2023-05-05T14:37:04.645Z,33.34
2023-05-05T14:39:36.300Z,34.16
2023-05-05T14:42:07.763Z,33.09
2023-05-05T14:44:39.263Z,33.22
2023-05-05T14:47:10.707Z,33.93
2023-05-05T14:49:42.752Z,32.98
2023-05-05T14:52:14.426Z,32.33
2023-05-05T14:54:46.323Z,32.52
2023-05-05T14:57:17.796Z,33.98
2023-05-05T14:59:49.654Z,33.72
2023-05-05T15:02:21.153Z,34.63
2023-05-05T15:04:52.805Z,34.18
2023-05-05T15:07:24.806Z,34.46
2023-05-05T15:09:56.539Z,34.14
2023-05-05T15:12:28.379Z,33.52
2023-05-05T15:14:59.860Z,32.99
2023-05-05T15:17:32.164Z,32.88
2023-05-05T15:20:04.938Z,32.82
2023-05-05T15:22:36.734Z,32.46
2023-05-05T15:25:08.646Z,32.80
2023-05-05T15:27:40.429Z,32.84
2023-05-05T15:30:11.917Z,33.38
2023-05-05T15:32:43.632Z,32.61
2023-05-05T15:35:15.514Z,33.05
2023-05-05T15:37:47.304Z,32.90
2023-05-05T15:40:18.773Z,33.04
2023-05-05T15:42:50.421Z,33.99
2023-05-05T15:45:22.209Z,33.91
2023-05-05T15:47:53.917Z,34.51
2023-05-05T15:50:25.498Z,35.07
2023-05-05T15:52:57.124Z,35.70
2023-05-05T15:55:28.642Z,36.02
2023-05-05T15:58:00.140Z,36.71
2023-05-05T16:00:31.683Z,36.87
2023-05-05T16:03:03.259Z,36.86
2023-05-05T16:05:35.121Z,37.38
2023-05-05T16:08:06.971Z,37.31
2023-05-05T16:10:38.465Z,37.08
2023-05-05T16:13:10.281Z,36.88
2023-05-05T16:15:41.760Z,37.22
2023-05-05T16:18:13.290Z,37.43
2023-05-05T16:20:45.158Z,37.61
2023-05-05T16:23:16.950Z,38.33
2023-05-05T16:25:48.417Z,38.30
2023-05-05T16:28:20.190Z,38.59
2023-05-05T16:30:51.661Z,38.71
2023-05-05T16:33:23.459Z,38.97
2023-05-05T16:35:55.255Z,38.88
2023-05-05T16:38:26.721Z,39.18
2023-05-05T16:40:58.553Z,40.06
2023-05-05T16:43:30.055Z,40.05
2023-05-05T16:46:02.032Z,40.37
2023-05-05T16:48:33.684Z,40.68
2023-05-05T16:51:05.762Z,41.41
2023-05-05T16:53:37.288Z,41.60
2023-05-05T16:56:09.128Z,41.85
2023-05-05T16:58:40.601Z,41.80
2023-05-05T17:01:12.257Z,42.36
2023-05-05T17:03:44.065Z,42.40
2023-05-05T17:06:15.529Z,42.87
2023-05-05T17:08:47.421Z,43.36
2023-05-05T17:11:18.880Z,43.60
2023-05-05T17:13:50.651Z,43.51
2023-05-05T17:16:22.263Z,43.85
2023-05-05T17:18:53.839Z,44.37
2023-05-05T17:21:25.312Z,44.23
2023-05-05T17:23:57.248Z,44.50
2023-05-05T17:26:28.729Z,44.90
2023-05-05T17:29:00.549Z,45.11
2023-05-05T17:31:32.599Z,45.04
2023-05-05T17:34:04.092Z,45.20
2023-05-05T17:36:35.619Z,45.84
2023-05-05T17:39:07.075Z,45.53
2023-05-05T17:41:38.717Z,45.98
2023-05-05T17:44:10.218Z,46.11
2023-05-05T17:46:41.734Z,46.49
2023-05-05T17:49:13.220Z,46.91
2023-05-05T17:51:44.727Z,47.47
2023-05-05T17:54:16.371Z,47.22
2023-05-05T17:56:47.879Z,47.87
2023-05-05T17:59:19.731Z,48.14
2023-05-05T18:01:51.337Z,48.47
2023-05-05T18:04:23.255Z,49.58
2023-05-05T18:06:54.693Z,49.36
2023-05-05T18:09:26.596Z,50.39
2023-05-05T18:11:58.062Z,51.22
2023-05-05T18:14:29.546Z,52.46
2023-05-05T18:17:01.133Z,53.14
2023-05-05T18:19:32.870Z,53.34
2023-05-05T18:22:04.336Z,54.65
2023-05-05T18:24:35.805Z,55.17
2023-05-05T18:27:07.566Z,55.51
2023-05-05T18:29:39.022Z,56.50
2023-05-05T18:32:10.777Z,56.67
2023-05-05T18:34:42.411Z,57.06
2023-05-05T18:37:14.387Z,57.15
2023-05-05T18:39:45.859Z,57.95
2023-05-05T18:42:17.784Z,58.15
2023-05-05T18:44:49.588Z,58.88
2023-05-05T18:47:21.405Z,59.26
2023-05-05T18:49:52.892Z,59.32
2023-05-05T18:52:24.710Z,59.42
2023-05-05T18:54:56.237Z,59.39
2023-05-05T18:57:28.136Z,59.76
2023-05-05T19:00:00.399Z,60.00
2023-05-05T19:02:32.109Z,60.01
2023-05-05T19:05:07.216Z,59.99
2023-05-05T19:07:38.776Z,59.87
2023-05-05T19:10:10.505Z,60.12
2023-05-05T19:12:42.119Z,60.55
2023-05-05T19:15:13.830Z,60.27
2023-05-05T19:17:45.320Z,60.18
2023-05-05T19:20:17.204Z,59.95
2023-05-05T19:22:48.670Z,60.05
2023-05-05T19:25:20.621Z,60.27
2023-05-05T19:27:52.431Z,60.76
2023-05-05T19:30:23.898Z,60.61
2023-05-05T19:32:55.602Z,61.01
2023-05-05T19:35:27.112Z,60.54
2023-05-05T19:37:58.908Z,61.32
2023-05-05T19:40:30.428Z,60.72
2023-05-05T19:43:02.348Z,60.73
2023-05-05T19:45:33.885Z,61.19
2023-05-05T19:48:05.392Z,61.08
2023-05-05T19:50:37.001Z,61.08
2023-05-05T19:53:09.002Z,61.21
2023-05-05T19:55:40.562Z,61.35
2023-05-05T19:58:12.092Z,61.49
2023-05-05T20:00:43.556Z,61.86
2023-05-05T20:03:15.054Z,61.77
2023-05-05T20:05:48.266Z,62.09
2023-05-05T20:08:19.736Z,62.03
2023-05-05T20:10:51.766Z,62.63
2023-05-05T20:13:23.302Z,62.12
2023-05-05T20:15:55.274Z,62.60
2023-05-05T20:18:26.807Z,63.31
2023-05-05T20:20:58.418Z,62.86
2023-05-05T20:23:29.935Z,63.32
2023-05-05T20:26:01.757Z,63.34
2023-05-05T20:28:33.648Z,63.72
2023-05-05T20:31:05.184Z,63.38
2023-05-05T20:33:36.714Z,63.10
2023-05-05T20:36:08.233Z,63.60
2023-05-05T20:38:39.684Z,63.60
2023-05-05T20:41:11.279Z,63.61
2023-05-05T20:43:43.308Z,64.00
2023-05-05T20:46:14.904Z,63.94
2023-05-05T20:48:46.710Z,64.17
2023-05-05T20:51:18.194Z,63.81
2023-05-05T20:53:49.844Z,64.37
2023-05-05T20:56:21.616Z,64.20
2023-05-05T20:58:53.108Z,64.54
2023-05-05T21:01:24.640Z,64.14
2023-05-05T21:03:56.127Z,64.38
2023-05-05T21:06:27.625Z,65.24
2023-05-05T21:08:59.075Z,66.34
2023-05-05T21:11:30.541Z,67.64
2023-05-05T21:14:02.001Z,68.73
2023-05-05T21:16:33.616Z,68.89
2023-05-05T21:19:05.082Z,69.50
2023-05-05T21:21:36.544Z,69.59
2023-05-05T21:24:08.204Z,70.34
2023-05-05T21:26:39.734Z,72.33
2023-05-05T21:29:11.247Z,71.48
2023-05-05T21:31:42.959Z,70.91
2023-05-05T21:34:14.702Z,71.96
2023-05-05T21:36:46.170Z,73.00
2023-05-05T21:39:17.643Z,73.51
2023-05-05T21:41:49.094Z,75.95
2023-05-05T21:44:20.937Z,76.98
2023-05-05T21:46:52.417Z,78.25
2023-05-05T21:49:23.910Z,79.20
2023-05-05T21:51:55.377Z,77.71
2023-05-05T21:54:27.174Z,80.20
2023-05-05T21:56:58.721Z,80.62
2023-05-05T21:59:30.484Z,81.39
2023-05-05T22:02:02.479Z,83.39
2023-05-05T22:04:33.967Z,82.65
2023-05-05T22:07:05.493Z,84.26
2023-05-05T22:09:36.963Z,84.29
2023-05-05T22:12:08.912Z,88.21
2023-05-05T22:14:40.366Z,87.92
2023-05-05T22:17:12.162Z,90.57
2023-05-05T22:19:43.618Z,90.66
2023-05-05T22:22:15.396Z,91.22
2023-05-05T22:24:46.889Z,90.64
2023-05-05T22:27:18.603Z,92.40
2023-05-05T22:29:50.074Z,92.86
2023-05-05T22:32:21.903Z,91.97
2023-05-05T22:34:53.644Z,92.06
2023-05-05T22:37:25.096Z,94.13
2023-05-05T22:39:57.049Z,93.64
2023-05-05T22:42:28.513Z,96.24
2023-05-05T22:45:00.247Z,97.00
2023-05-05T22:47:31.716Z,100.00
2023-05-05T22:50:03.447Z,100.00
2023-05-05T22:52:34.931Z,100.00
2023-05-05T22:55:06.932Z,100.00
2023-05-05T22:57:38.461Z,100.00
2023-05-05T23:00:10.701Z,100.00
2023-05-05T23:02:42.442Z,100.00
2023-05-05T23:05:13.908Z,100.00
2023-05-05T23:07:45.621Z,100.00
2023-05-05T23:10:17.087Z,100.00
2023-05-05T23:12:48.970Z,100.00
2023-05-05T23:15:20.436Z,100.00
2023-05-05T23:17:52.118Z,100.00
2023-05-05T23:20:23.648Z,100.00
2023-05-05T23:22:55.498Z,100.00
2023-05-05T23:25:26.964Z,100.00
2023-05-05T23:27:58.909Z,100.00
2023-05-05T23:30:30.776Z,100.00
2023-05-05T23:33:02.326Z,100.00
2023-05-05T23:35:33.828Z,100.00
2023-05-05T23:38:05.277Z,100.00
2023-05-05T23:40:36.771Z,100.00
2023-05-05T23:43:08.447Z,100.00
2023-05-05T23:45:39.952Z,100.00
2023-05-05T23:48:11.455Z,100.00
2023-05-05T23:50:43.101Z,100.00
2023-05-05T23:53:14.570Z,100.00
2023-05-05T23:55:46.434Z,100.00
2023-05-05T23:58:18.278Z,100.00
